Time;durP1;ratioP1;P1;durP2;ratioP2;P2;SDS_P1;SDS_P2;PMS_P1;PMS_P2;Temp;Humidity;BMP_temperature;BMP_pressure;BME280_temperature;BME280_humidity;BME280_pressure;Samples;Min_cycle;Max_cycle;Signal;HPM_P1;HPM_P2
2023/01/03 00:01:11;;;;;;;3.83;0.97;;;6.80;99.90;;;;;;4129924;28;20170;-64
2023/01/03 00:03:15;;;;;;;1.17;0.90;;;6.70;99.90;;;;;;4134129;28;20217;-64
2023/01/03 00:05:16;;;;;;;1.00;0.90;;;6.90;99.90;;;;;;4145227;28;20210;-66
2023/01/03 00:07:32;;;;;;;1.10;0.90;;;6.90;99.90;;;;;;4128904;28;21037;-65
2023/01/03 00:09:33;;;;;;;0.93;0.80;;;7.00;99.90;;;;;;4115380;28;20214;-64
2023/01/03 00:13:54;;;;;;;1.00;0.80;;;6.90;99.90;;;;;;4134342;28;20611;-64
2023/01/03 00:15:55;;;;;;;1.17;0.90;;;7.10;99.90;;;;;;4144013;28;20433;-64
2023/01/03 00:17:56;;;;;;;0.90;0.70;;;7.20;99.90;;;;;;4133615;28;20208;-64
2023/01/03 00:19:56;;;;;;;0.90;0.77;;;7.20;99.90;;;;;;4144028;28;20743;-64
2023/01/03 00:21:57;;;;;;;0.70;0.70;;;7.30;99.90;;;;;;4134505;28;20213;-64
2023/01/03 00:23:58;;;;;;;0.67;0.67;;;7.30;99.90;;;;;;4144012;28;20197;-64
2023/01/03 00:25:58;;;;;;;0.80;0.80;;;7.40;99.90;;;;;;4134597;28;20197;-64
2023/01/03 00:27:59;;;;;;;0.87;0.80;;;7.40;99.90;;;;;;4142891;28;20721;-64
2023/01/03 00:30:00;;;;;;;2.13;1.23;;;7.40;99.90;;;;;;4134466;28;20617;-65
2023/01/03 00:32:02;;;;;;;1.13;0.80;;;7.30;99.90;;;;;;4143062;28;20918;-64
2023/01/03 00:34:03;;;;;;;2.00;0.80;;;7.40;99.90;;;;;;4129508;28;20655;-66
2023/01/03 00:36:07;;;;;;;0.73;0.73;;;7.30;99.90;;;;;;4142599;28;20509;-64
2023/01/03 00:38:08;;;;;;;1.10;0.97;;;7.30;99.90;;;;;;4135067;28;20280;-64
2023/01/03 00:40:09;;;;;;;1.17;1.03;;;7.40;99.90;;;;;;4148097;28;20821;-65
2023/01/03 00:42:10;;;;;;;2.33;0.93;;;7.40;99.90;;;;;;4143212;28;20252;-64
2023/01/03 00:44:11;;;;;;;0.87;0.80;;;7.40;99.90;;;;;;4137348;28;20415;-64
2023/01/03 00:46:14;;;;;;;1.33;1.23;;;7.40;99.90;;;;;;4136193;28;20183;-65
2023/01/03 00:48:15;;;;;;;0.80;0.73;;;7.30;99.90;;;;;;4140836;28;20179;-64
2023/01/03 00:50:15;;;;;;;1.00;0.80;;;7.30;99.90;;;;;;4136406;28;20436;-64
2023/01/03 00:52:16;;;;;;;0.80;0.73;;;7.40;99.90;;;;;;4140895;28;20178;-65
2023/01/03 00:54:16;;;;;;;1.10;1.00;;;7.30;99.90;;;;;;4129334;28;20182;-65
2023/01/03 00:56:21;;;;;;;4.00;1.00;;;7.40;99.90;;;;;;4140549;28;20240;-65
2023/01/03 00:58:22;;;;;;;0.70;0.70;;;7.40;99.90;;;;;;4137120;28;20180;-64
2023/01/03 01:00:22;;;;;;;0.90;0.80;;;7.40;99.90;;;;;;4140096;28;20461;-64
2023/01/03 01:02:23;;;;;;;0.73;0.73;;;7.40;99.90;;;;;;4137144;28;20235;-65
2023/01/03 01:04:30;;;;;;;0.60;0.60;;;7.40;99.90;;;;;;4137379;28;20181;-64
2023/01/03 01:06:40;;;;;;;1.13;0.70;;;7.30;99.90;;;;;;4138185;28;20241;-63
2023/01/03 01:08:42;;;;;;;1.43;0.90;;;7.20;99.90;;;;;;4138600;28;20201;-64
2023/01/03 01:11:00;;;;;;;0.80;0.80;;;6.90;99.90;;;;;;4129776;28;20456;-65
2023/01/03 01:13:01;;;;;;;0.70;0.70;;;6.90;99.90;;;;;;4129398;28;20586;-63
2023/01/03 01:15:02;;;;;;;0.70;0.70;;;6.90;99.90;;;;;;4146763;28;20431;-63
2023/01/03 01:17:06;;;;;;;0.67;0.67;;;7.00;99.90;;;;;;4146530;28;20205;-64
2023/01/03 01:19:07;;;;;;;2.97;0.80;;;7.10;99.90;;;;;;4145974;28;20633;-64
2023/01/03 01:21:17;;;;;;;1.00;0.80;;;7.20;99.90;;;;;;4146831;28;20186;-64
2023/01/03 01:23:18;;;;;;;3.60;0.90;;;7.10;99.90;;;;;;4128903;28;20158;-63
2023/01/03 01:25:18;;;;;;;0.90;0.80;;;7.10;99.90;;;;;;4146696;28;20220;-64
2023/01/03 01:27:19;;;;;;;0.73;0.73;;;7.00;99.90;;;;;;4145997;28;20189;-64
2023/01/03 01:29:20;;;;;;;0.80;0.80;;;7.00;99.90;;;;;;4129428;28;20197;-64
2023/01/03 01:31:24;;;;;;;0.67;0.67;;;7.00;99.90;;;;;;4129409;28;20658;-64
2023/01/03 01:33:25;;;;;;;1.00;0.77;;;7.20;99.90;;;;;;4146432;28;20781;-63
2023/01/03 01:35:25;;;;;;;2.20;0.73;;;7.10;99.90;;;;;;4146726;28;20189;-64
2023/01/03 01:37:26;;;;;;;1.00;0.83;;;7.20;99.90;;;;;;4137546;28;20205;-63
2023/01/03 01:39:28;;;;;;;1.30;0.73;;;7.20;99.90;;;;;;4114384;28;20298;-64
2023/01/03 01:46:30;;;;;;;1.80;1.50;;;7.40;99.90;;;;;;4114184;28;20438;-63
2023/01/03 01:48:32;;;;;;;0.67;0.67;;;7.40;99.90;;;;;;4096769;29;20171;-64
2023/01/03 01:50:51;;;;;;;0.80;0.70;;;7.50;99.90;;;;;;4114142;28;20442;-63
2023/01/03 01:53:11;;;;;;;1.10;0.60;;;7.50;99.90;;;;;;4096909;29;20403;-63
2023/01/03 01:55:18;;;;;;;1.00;0.73;;;7.40;99.90;;;;;;4113791;28;20906;-64
2023/01/03 01:57:21;;;;;;;1.53;0.70;;;7.30;99.90;;;;;;4096099;29;20235;-64
2023/01/03 01:59:22;;;;;;;1.10;0.70;;;7.30;99.90;;;;;;4096780;29;20267;-63
2023/01/03 02:01:24;;;;;;;1.03;0.77;;;7.20;99.90;;;;;;4113867;28;20210;-63
2023/01/03 02:03:24;;;;;;;0.80;0.70;;;7.10;99.90;;;;;;4114425;28;20862;-64
2023/01/03 02:05:27;;;;;;;0.80;0.70;;;7.20;99.90;;;;;;4114002;28;20215;-63
2023/01/03 02:07:27;;;;;;;0.77;0.77;;;7.20;99.90;;;;;;4096165;29;20208;-64
2023/01/03 02:09:32;;;;;;;1.00;0.87;;;7.20;99.90;;;;;;4114214;28;20709;-64
2023/01/03 02:15:06;;;;;;;2.47;0.90;;;7.40;99.90;;;;;;4114030;28;20269;-64
2023/01/03 02:17:30;;;;;;;0.70;0.70;;;7.40;99.90;;;;;;4113101;28;20219;-64
2023/01/03 02:19:55;;;;;;;0.70;0.70;;;7.30;99.90;;;;;;4096784;29;20342;-62
2023/01/03 02:22:53;;;;;;;0.70;0.70;;;7.30;99.90;;;;;;4096588;29;20938;-62
2023/01/03 02:25:22;;;;;;;0.67;0.67;;;7.10;99.90;;;;;;4064202;29;20880;-62
2023/01/03 02:27:50;;;;;;;0.60;0.60;;;7.00;99.90;;;;;;4063413;29;20189;-62
2023/01/03 02:30:11;;;;;;;0.70;0.60;;;7.10;99.90;;;;;;4091284;28;20210;-63
2023/01/03 02:32:18;;;;;;;1.77;0.70;;;7.20;99.90;;;;;;4096698;29;20520;-63
2023/01/03 02:34:46;;;;;;;0.70;0.70;;;7.30;99.90;;;;;;4095720;29;20172;-62
2023/01/03 02:37:04;;;;;;;0.60;0.60;;;7.30;99.90;;;;;;4096082;29;20280;-62
2023/01/03 02:39:22;;;;;;;1.93;0.60;;;7.30;99.90;;;;;;4113541;28;20202;-64
2023/01/03 02:41:46;;;;;;;0.90;0.70;;;7.30;99.90;;;;;;4106441;29;20289;-62
2023/01/03 02:44:20;;;;;;;1.00;0.70;;;7.30;99.90;;;;;;4098999;29;20523;-63
2023/01/03 02:46:54;;;;;;;0.60;0.60;;;7.20;99.90;;;;;;4089662;29;20780;-62
2023/01/03 02:49:09;;;;;;;0.70;0.70;;;7.30;99.90;;;;;;4114030;28;20163;-63
2023/01/03 02:51:38;;;;;;;0.70;0.70;;;7.20;99.90;;;;;;4109456;28;20415;-62
2023/01/03 02:53:45;;;;;;;1.77;0.93;;;7.10;99.90;;;;;;4126039;28;20689;-63
2023/01/03 02:55:50;;;;;;;0.93;0.80;;;7.00;99.90;;;;;;4112952;28;20173;-63
2023/01/03 02:58:02;;;;;;;0.93;0.77;;;7.10;99.90;;;;;;4129517;28;20289;-63
2023/01/03 03:00:23;;;;;;;1.33;0.70;;;7.00;99.90;;;;;;4113229;28;20445;-63
2023/01/03 03:02:33;;;;;;;1.10;0.70;;;7.00;99.90;;;;;;4112472;28;20167;-63
2023/01/03 03:04:37;;;;;;;0.80;0.80;;;7.10;99.90;;;;;;4106937;28;20186;-63
2023/01/03 03:06:44;;;;;;;0.70;0.70;;;7.20;99.90;;;;;;4128938;28;20538;-63
2023/01/03 03:08:45;;;;;;;0.70;0.63;;;7.30;99.90;;;;;;4112019;28;20698;-63
2023/01/03 03:13:39;;;;;;;2.50;0.83;;;7.30;99.90;;;;;;4129381;28;20843;-63
2023/01/03 03:16:04;;;;;;;0.90;0.90;;;7.30;99.90;;;;;;4111980;28;20546;-62
2023/01/03 03:18:12;;;;;;;1.20;1.10;;;7.30;99.90;;;;;;4128791;28;20205;-63
2023/01/03 03:25:23;;;;;;;0.80;0.80;;;7.10;99.90;;;;;;4129374;28;20197;-63
2023/01/03 03:29:48;;;;;;;1.00;0.70;;;7.00;99.90;;;;;;4128384;28;20205;-63
2023/01/03 03:31:50;;;;;;;0.80;0.80;;;7.10;99.90;;;;;;4129593;28;20232;-63
2023/01/03 03:34:01;;;;;;;0.97;0.80;;;7.10;99.90;;;;;;4096132;29;20679;-63
2023/01/03 03:36:14;;;;;;;0.63;0.60;;;7.10;99.90;;;;;;4129342;28;20249;-63
2023/01/03 03:38:25;;;;;;;1.20;0.63;;;7.10;99.90;;;;;;4125626;28;20209;-63
2023/01/03 03:45:41;;;;;;;0.80;0.80;;;7.10;99.90;;;;;;4113613;28;20172;-63
2023/01/03 03:48:00;;;;;;;0.70;0.60;;;7.00;99.90;;;;;;4097975;29;20543;-63
2023/01/03 03:50:42;;;;;;;1.10;0.70;;;7.00;99.90;;;;;;4116110;28;20206;-63
2023/01/03 03:52:48;;;;;;;1.57;0.70;;;7.10;99.90;;;;;;4085745;28;20247;-63
2023/01/03 03:54:56;;;;;;;0.83;0.80;;;7.00;99.90;;;;;;4098765;29;20188;-63
2023/01/03 03:57:08;;;;;;;0.67;0.63;;;7.00;99.90;;;;;;4098237;29;20191;-63
2023/01/03 03:59:10;;;;;;;2.10;0.70;;;7.00;99.90;;;;;;4082539;29;20943;-63
2023/01/03 04:01:15;;;;;;;1.60;0.70;;;7.00;99.90;;;;;;4116128;28;20642;-63
2023/01/03 04:03:17;;;;;;;1.23;1.00;;;7.10;99.90;;;;;;4082806;29;20183;-62
2023/01/03 04:05:22;;;;;;;0.60;0.60;;;7.10;99.90;;;;;;4098718;29;20427;-63
2023/01/03 04:07:23;;;;;;;0.97;0.87;;;7.00;99.90;;;;;;4097768;28;20462;-63
2023/01/03 04:09:24;;;;;;;2.70;0.80;;;7.00;99.90;;;;;;4115641;28;20414;-63
2023/01/03 04:11:24;;;;;;;1.17;0.83;;;7.00;99.90;;;;;;4115605;28;20183;-63
2023/01/03 04:13:25;;;;;;;1.30;0.80;;;7.10;99.90;;;;;;4115654;28;20253;-63
2023/01/03 04:15:26;;;;;;;0.83;0.70;;;7.00;99.90;;;;;;4115669;28;20191;-63
2023/01/03 04:17:26;;;;;;;0.70;0.70;;;7.10;99.90;;;;;;4114705;28;20745;-63
2023/01/03 04:19:27;;;;;;;0.70;0.70;;;7.10;99.90;;;;;;4115574;28;20557;-63
2023/01/03 04:21:28;;;;;;;0.70;0.70;;;7.00;99.90;;;;;;4115741;28;20904;-63
2023/01/03 04:23:29;;;;;;;1.43;0.90;;;7.00;99.90;;;;;;4115602;28;20666;-62
2023/01/03 04:25:30;;;;;;;0.80;0.77;;;7.00;99.90;;;;;;4098110;29;20247;-63
2023/01/03 04:27:30;;;;;;;0.80;0.80;;;7.00;99.90;;;;;;4114545;28;20696;-63
2023/01/03 04:29:31;;;;;;;0.67;0.67;;;7.00;99.90;;;;;;4115241;28;20449;-63
2023/01/03 04:31:32;;;;;;;1.37;0.80;;;7.00;99.90;;;;;;4082511;29;20214;-63
2023/01/03 04:33:32;;;;;;;1.40;0.80;;;6.90;99.90;;;;;;4115250;28;20184;-63
2023/01/03 04:35:34;;;;;;;0.77;0.77;;;7.00;99.90;;;;;;4115295;28;20180;-63
2023/01/03 04:37:35;;;;;;;0.63;0.63;;;6.90;99.90;;;;;;4114397;28;20208;-63
2023/01/03 04:39:35;;;;;;;1.53;0.80;;;7.00;99.90;;;;;;4116892;28;20573;-63
2023/01/03 04:41:36;;;;;;;1.03;0.90;;;7.00;99.90;;;;;;4128116;28;20218;-63
2023/01/03 04:45:55;;;;;;;0.67;0.67;;;6.90;99.90;;;;;;4117007;28;20165;-63
2023/01/03 04:47:56;;;;;;;0.90;0.80;;;6.90;99.90;;;;;;4131000;28;20512;-63
2023/01/03 04:49:57;;;;;;;4.17;0.77;;;6.90;99.90;;;;;;4131426;28;20233;-63
2023/01/03 04:51:57;;;;;;;1.00;0.90;;;6.90;99.90;;;;;;4114196;28;20253;-63
2023/01/03 04:53:58;;;;;;;0.70;0.70;;;7.00;99.90;;;;;;4114046;28;20704;-63
2023/01/03 04:55:59;;;;;;;1.73;0.90;;;7.00;99.90;;;;;;4131287;28;20756;-63
2023/01/03 04:58:00;;;;;;;1.00;0.90;;;7.00;99.90;;;;;;4111900;28;20238;-63
2023/01/03 05:00:01;;;;;;;1.07;0.90;;;6.90;99.90;;;;;;4130736;28;20194;-63
2023/01/03 05:02:02;;;;;;;1.20;0.97;;;6.70;99.90;;;;;;4130761;28;20511;-63
2023/01/03 05:04:03;;;;;;;1.10;1.00;;;6.80;99.90;;;;;;4130632;28;20175;-63
2023/01/03 05:06:07;;;;;;;0.87;0.80;;;6.70;99.90;;;;;;4130963;28;20429;-63
2023/01/03 05:08:10;;;;;;;1.10;0.90;;;6.80;99.90;;;;;;4130078;28;20289;-63
2023/01/03 05:10:11;;;;;;;1.07;0.97;;;6.70;99.90;;;;;;4113392;28;20486;-64
2023/01/03 05:12:11;;;;;;;1.37;1.07;;;6.70;99.90;;;;;;4130750;28;20206;-63
2023/01/03 05:14:12;;;;;;;1.00;0.90;;;6.70;99.90;;;;;;4130641;28;20235;-63
2023/01/03 05:16:14;;;;;;;1.20;1.10;;;6.70;99.90;;;;;;4130662;28;20265;-62
2023/01/03 05:18:15;;;;;;;2.20;1.00;;;6.60;99.90;;;;;;4110311;28;20227;-63
2023/01/03 05:27:30;;;;;;;0.93;0.90;;;6.60;99.90;;;;;;4095763;29;20470;-63
2023/01/03 05:29:33;;;;;;;1.00;0.90;;;6.50;99.90;;;;;;4114762;28;20549;-62
2023/01/03 05:31:34;;;;;;;2.60;0.97;;;6.40;99.90;;;;;;4130700;28;20276;-63
2023/01/03 05:33:37;;;;;;;2.57;1.00;;;6.40;99.90;;;;;;4130552;28;20441;-62
2023/01/03 05:35:38;;;;;;;2.10;1.00;;;6.40;99.90;;;;;;4130752;28;20187;-62
2023/01/03 05:37:39;;;;;;;4.67;1.13;;;6.40;99.90;;;;;;4124505;28;21064;-62
2023/01/03 05:39:39;;;;;;;2.03;0.90;;;6.40;99.90;;;;;;4114790;28;20585;-63
2023/01/03 05:41:58;;;;;;;1.50;1.10;;;6.40;99.90;;;;;;4114222;28;20182;-62
2023/01/03 05:43:59;;;;;;;1.17;0.80;;;6.30;99.90;;;;;;4114378;28;20617;-63
2023/01/03 05:45:59;;;;;;;1.57;1.00;;;6.30;99.90;;;;;;4114551;28;20438;-62
2023/01/03 05:48:00;;;;;;;1.53;1.20;;;6.30;99.90;;;;;;4113913;28;20195;-62
2023/01/03 05:50:01;;;;;;;1.20;1.10;;;6.10;99.90;;;;;;4114137;28;20306;-62
2023/01/03 05:52:02;;;;;;;1.53;1.33;;;6.00;99.90;;;;;;4097189;29;20192;-62
2023/01/03 05:54:03;;;;;;;1.23;1.13;;;6.00;99.90;;;;;;4114172;28;20244;-62
2023/01/03 05:56:05;;;;;;;2.00;1.30;;;6.00;99.90;;;;;;4096972;29;20447;-62
2023/01/03 05:58:06;;;;;;;5.43;3.00;;;5.90;99.90;;;;;;4113419;28;20220;-62
2023/01/03 06:00:09;;;;;;;4.30;2.33;;;5.80;99.90;;;;;;4096830;29;20439;-62
2023/01/03 06:02:09;;;;;;;7.53;3.43;;;5.80;99.90;;;;;;4113930;28;20844;-62
2023/01/03 06:04:10;;;;;;;4.27;2.23;;;5.70;99.90;;;;;;4096632;29;20431;-62
2023/01/03 06:06:13;;;;;;;2.63;1.73;;;5.70;99.90;;;;;;4114088;28;20175;-64
2023/01/03 06:08:13;;;;;;;2.40;1.67;;;5.70;99.90;;;;;;4113113;28;20225;-62
2023/01/03 06:10:14;;;;;;;4.57;1.47;;;5.70;99.90;;;;;;4113709;28;20934;-62
2023/01/03 06:12:15;;;;;;;4.43;2.10;;;5.70;99.90;;;;;;4096337;29;20644;-62
2023/01/03 06:14:15;;;;;;;1.47;1.37;;;5.70;99.90;;;;;;4113630;28;20677;-62
2023/01/03 06:18:37;;;;;;;2.80;1.40;;;5.60;99.90;;;;;;4099053;28;20250;-62
2023/01/03 06:20:38;;;;;;;3.53;1.60;;;5.50;99.90;;;;;;4113563;28;20446;-63
2023/01/03 06:22:39;;;;;;;1.80;1.30;;;5.40;99.90;;;;;;4113619;28;20202;-62
2023/01/03 06:24:39;;;;;;;1.70;1.23;;;5.30;99.90;;;;;;4113550;28;20191;-62
2023/01/03 06:26:40;;;;;;;3.43;2.63;;;5.40;99.90;;;;;;4112879;28;20198;-61
2023/01/03 06:28:41;;;;;;;3.27;2.47;;;5.40;99.90;;;;;;4113341;28;20745;-62
2023/01/03 06:30:41;;;;;;;4.20;2.53;;;5.40;99.90;;;;;;4113556;28;20693;-62
2023/01/03 06:32:43;;;;;;;2.60;1.97;;;5.40;99.90;;;;;;4113319;28;20189;-62
2023/01/03 06:34:43;;;;;;;2.00;1.70;;;5.30;99.90;;;;;;4101522;28;20282;-62
2023/01/03 06:36:44;;;;;;;2.67;1.50;;;5.20;99.90;;;;;;4128665;28;20493;-62
2023/01/03 06:38:46;;;;;;;1.30;1.20;;;5.20;99.90;;;;;;4129238;28;20245;-62
2023/01/03 06:40:48;;;;;;;1.93;1.20;;;5.30;99.90;;;;;;4114732;28;20214;-62
2023/01/03 06:42:48;;;;;;;2.87;1.50;;;5.20;99.90;;;;;;4132444;28;21025;-63
2023/01/03 06:54:25;;;;;;;4.87;2.30;;;4.90;99.90;;;;;;4114518;28;20441;-62
2023/01/03 06:56:25;;;;;;;2.17;1.60;;;4.90;99.90;;;;;;4129102;28;20460;-62
2023/01/03 06:58:26;;;;;;;2.53;1.80;;;4.80;99.90;;;;;;4111955;28;20953;-63
2023/01/03 07:00:27;;;;;;;3.53;1.87;;;4.80;99.90;;;;;;4129620;28;20280;-62
2023/01/03 07:02:28;;;;;;;3.20;1.93;;;4.70;99.90;;;;;;4096178;29;20199;-62
2023/01/03 07:04:28;;;;;;;5.73;3.00;;;4.70;99.90;;;;;;4129220;28;20244;-62
2023/01/03 07:06:29;;;;;;;3.80;2.47;;;4.60;99.90;;;;;;4129693;28;20189;-62
2023/01/03 07:08:30;;;;;;;5.67;2.60;;;4.70;99.90;;;;;;4129695;28;20198;-62
2023/01/03 07:10:30;;;;;;;5.80;2.83;;;4.70;99.90;;;;;;4129203;28;20300;-62
2023/01/03 07:14:50;;;;;;;4.53;2.97;;;4.70;99.90;;;;;;4129285;28;20209;-63
2023/01/03 07:16:51;;;;;;;5.10;3.07;;;4.60;99.90;;;;;;4128466;28;20984;-63
2023/01/03 07:18:52;;;;;;;3.47;2.40;;;4.60;99.90;;;;;;4129439;28;20660;-63
2023/01/03 07:20:53;;;;;;;3.97;2.70;;;4.60;99.90;;;;;;4130363;28;20234;-63
2023/01/03 07:22:53;;;;;;;4.70;2.93;;;4.70;99.90;;;;;;4132573;28;20499;-63
2023/01/03 07:24:54;;;;;;;4.90;3.13;;;4.60;99.90;;;;;;4132391;28;20186;-64
2023/01/03 07:26:55;;;;;;;4.20;2.70;;;4.70;99.90;;;;;;4114399;28;20194;-63
2023/01/03 07:28:56;;;;;;;4.03;2.73;;;4.70;99.90;;;;;;4132141;28;20187;-63
2023/01/03 07:31:03;;;;;;;4.53;3.00;;;4.70;99.90;;;;;;4132352;28;20214;-63
2023/01/03 07:33:04;;;;;;;5.70;3.33;;;4.80;99.90;;;;;;4114781;28;20478;-63
2023/01/03 07:35:06;;;;;;;4.97;2.80;;;4.70;99.90;;;;;;4114556;28;20434;-63
2023/01/03 07:37:06;;;;;;;3.67;2.80;;;4.70;99.90;;;;;;4131305;28;20468;-63
2023/01/03 07:39:07;;;;;;;4.93;2.73;;;4.70;99.90;;;;;;4131842;28;20440;-62
2023/01/03 07:41:09;;;;;;;6.27;2.93;;;4.70;99.90;;;;;;4132408;28;20236;-62
2023/01/03 07:45:30;;;;;;;18.30;5.00;;;4.80;99.90;;;;;;4115676;28;20406;-62
2023/01/03 07:47:30;;;;;;;18.53;5.40;;;5.00;99.90;;;;;;4115004;28;20434;-61
2023/01/03 07:49:31;;;;;;;31.10;6.60;;;5.00;99.90;;;;;;4115960;28;20214;-62
2023/01/03 07:51:32;;;;;;;20.17;5.00;;;5.00;99.90;;;;;;4115996;28;20187;-62
2023/01/03 07:53:34;;;;;;;33.83;5.50;;;5.20;99.90;;;;;;4115804;28;20704;-62
2023/01/03 07:55:36;;;;;;;7.93;3.87;;;5.30;99.90;;;;;;4098633;29;20462;-62
2023/01/03 07:57:37;;;;;;;15.33;4.63;;;5.10;99.90;;;;;;4114887;28;20571;-62
2023/01/03 07:59:37;;;;;;;35.90;6.63;;;5.10;99.90;;;;;;4115467;28;20454;-62
2023/01/03 08:01:38;;;;;;;42.67;8.30;;;5.30;99.90;;;;;;4115515;28;20191;-62
2023/01/03 08:03:39;;;;;;;13.23;4.43;;;5.30;99.90;;;;;;4115461;28;20202;-62
2023/01/03 08:05:40;;;;;;;23.03;6.30;;;5.30;99.90;;;;;;4115456;28;20183;-62
2023/01/03 08:07:41;;;;;;;36.77;6.93;;;5.20;99.90;;;;;;4114736;28;20458;-62
2023/01/03 08:14:21;;;;;;;36.23;9.00;;;5.40;99.90;;;;;;4115436;28;20522;-62
2023/01/03 08:16:21;;;;;;;32.27;9.37;;;5.50;99.90;;;;;;4114854;28;20853;-63
2023/01/03 08:18:25;;;;;;;16.00;6.03;;;5.50;99.90;;;;;;4114970;28;20262;-62
2023/01/03 08:20:26;;;;;;;17.53;6.17;;;5.50;99.90;;;;;;4097967;29;20725;-63
2023/01/03 08:22:28;;;;;;;8.03;4.73;;;5.50;99.90;;;;;;4098011;29;20423;-62
2023/01/03 08:24:28;;;;;;;10.90;4.87;;;5.60;99.90;;;;;;4115385;28;20195;-62
2023/01/03 08:26:29;;;;;;;9.20;4.57;;;5.70;99.90;;;;;;4114653;28;20437;-62
2023/01/03 08:28:30;;;;;;;10.13;5.03;;;5.70;99.90;;;;;;4119110;28;20714;-62
2023/01/03 08:30:31;;;;;;;9.43;4.83;;;5.60;99.90;;;;;;4131195;28;20577;-63
2023/01/03 08:32:32;;;;;;;6.80;4.20;;;5.70;99.90;;;;;;4131299;28;20190;-62
2023/01/03 08:34:37;;;;;;;8.83;5.93;;;5.70;99.90;;;;;;4131198;28;20435;-63
2023/01/03 08:36:46;;;;;;;9.30;5.93;;;5.60;99.90;;;;;;4113382;28;20830;-62
2023/01/03 08:39:05;;;;;;;12.87;6.57;;;5.40;99.90;;;;;;4131054;28;20437;-62
2023/01/03 08:41:08;;;;;;;8.60;5.10;;;5.30;99.90;;;;;;4118036;28;20975;-62
2023/01/03 08:43:11;;;;;;;8.57;5.40;;;5.30;99.90;;;;;;4139109;28;20205;-62
2023/01/03 08:45:16;;;;;;;10.80;6.47;;;5.50;99.90;;;;;;4113717;28;20494;-63
2023/01/03 08:47:17;;;;;;;18.47;10.90;;;5.70;99.90;;;;;;4113606;28;20767;-62
2023/01/03 08:49:18;;;;;;;30.83;17.00;;;6.00;99.90;;;;;;4113738;28;20237;-62
2023/01/03 08:51:19;;;;;;;22.43;11.43;;;6.10;99.90;;;;;;4131378;28;20221;-62
2023/01/03 08:53:21;;;;;;;19.10;10.23;;;6.20;99.90;;;;;;4131141;28;20218;-63
2023/01/03 08:55:22;;;;;;;8.20;5.13;;;6.20;99.90;;;;;;4130974;28;20282;-62
2023/01/03 08:57:23;;;;;;;11.17;5.70;;;6.20;99.90;;;;;;4130161;28;20492;-63
2023/01/03 08:59:23;;;;;;;8.90;4.97;;;6.10;99.90;;;;;;4130755;28;20190;-63
2023/01/03 09:01:24;;;;;;;9.33;5.27;;;6.00;99.90;;;;;;4130963;28;20193;-62
2023/01/03 09:03:25;;;;;;;6.60;4.77;;;6.00;99.90;;;;;;4130776;28;20258;-62
2023/01/03 09:05:27;;;;;;;7.40;4.60;;;6.00;99.90;;;;;;4130884;28;20185;-62
2023/01/03 09:07:28;;;;;;;9.27;5.00;;;6.00;99.90;;;;;;4112721;28;20202;-62
2023/01/03 09:09:28;;;;;;;5.97;3.90;;;6.20;99.90;;;;;;4130853;28;20476;-62
2023/01/03 09:11:29;;;;;;;12.00;5.83;;;6.40;99.90;;;;;;4130536;28;20191;-62
2023/01/03 09:13:30;;;;;;;12.87;6.63;;;6.40;99.90;;;;;;4130599;28;20190;-62
2023/01/03 09:15:30;;;;;;;14.70;7.43;;;6.40;99.90;;;;;;4113226;28;20183;-63
2023/01/03 09:17:31;;;;;;;12.13;6.30;;;6.50;99.90;;;;;;4129742;28;20297;-62
2023/01/03 09:19:32;;;;;;;11.93;5.90;;;6.50;99.90;;;;;;4113229;28;20207;-63
2023/01/03 09:21:32;;;;;;;9.77;5.40;;;6.70;99.90;;;;;;4130521;28;20185;-63
2023/01/03 09:23:34;;;;;;;13.60;6.13;;;6.80;99.90;;;;;;4130651;28;20260;-63
2023/01/03 09:25:35;;;;;;;17.37;6.00;;;6.90;99.90;;;;;;4113303;28;20186;-62
2023/01/03 09:27:36;;;;;;;14.80;5.57;;;7.00;99.90;;;;;;4129828;28;20186;-62
2023/01/03 09:29:37;;;;;;;7.50;5.10;;;7.10;99.90;;;;;;4130535;28;20338;-64
2023/01/03 09:31:37;;;;;;;6.07;4.10;;;7.20;99.90;;;;;;4130324;28;20197;-62
2023/01/03 09:33:38;;;;;;;6.10;3.43;;;7.40;99.90;;;;;;4130482;28;20190;-63
2023/01/03 09:35:39;;;;;;;7.13;3.77;;;7.50;99.90;;;;;;4130445;28;20198;-63
2023/01/03 09:37:39;;;;;;;3.97;2.80;;;7.60;99.90;;;;;;4112256;28;20225;-63
2023/01/03 09:39:40;;;;;;;6.13;2.93;;;7.90;99.90;;;;;;4096849;29;20211;-63
2023/01/03 09:41:42;;;;;;;18.93;11.10;;;7.80;99.90;;;;;;4130065;28;20186;-63
2023/01/03 09:43:47;;;;;;;20.23;10.23;;;7.60;99.90;;;;;;4129846;28;20541;-63
2023/01/03 09:45:54;;;;;;;22.87;9.60;;;7.80;99.90;;;;;;4098175;28;20252;-63
2023/01/03 09:47:55;;;;;;;15.17;8.20;;;7.70;99.90;;;;;;4080490;29;20401;-63
2023/01/03 09:49:56;;;;;;;12.50;6.60;;;7.80;99.90;;;;;;4114202;28;20210;-63
2023/01/03 10:04:57;;;;;;;15.93;7.30;;;8.20;98.50;;;;;;4113801;28;20417;-63
2023/01/03 10:08:14;;;;;;;21.50;9.50;;;8.00;99.20;;;;;;4095833;29;20191;-64
2023/01/03 10:10:37;;;;;;;16.53;6.10;;;8.00;99.10;;;;;;4067482;29;20262;-63
2023/01/03 10:13:35;;;;;;;9.60;4.97;;;7.60;99.90;;;;;;4112417;28;20188;-64
2023/01/03 10:15:50;;;;;;;7.77;3.90;;;7.60;99.90;;;;;;4112429;28;20937;-64
2023/01/03 10:18:55;;;;;;;4.57;2.37;;;7.70;99.90;;;;;;4128868;28;20306;-64
2023/01/03 10:21:07;;;;;;;3.87;2.27;;;7.60;99.90;;;;;;4117536;28;20264;-64
2023/01/03 10:23:09;;;;;;;2.43;1.80;;;7.80;99.90;;;;;;4112255;28;20258;-64
2023/01/03 10:25:20;;;;;;;2.47;1.83;;;8.10;99.70;;;;;;4129697;28;20189;-64
2023/01/03 10:27:25;;;;;;;2.90;2.30;;;8.20;99.60;;;;;;4128777;28;20189;-63
2023/01/03 10:29:26;;;;;;;2.27;1.93;;;8.20;98.80;;;;;;4112399;28;20246;-63
2023/01/03 10:31:43;;;;;;;3.83;2.00;;;8.40;99.10;;;;;;4129230;28;20269;-63
2023/01/03 10:33:46;;;;;;;3.20;2.27;;;8.40;98.10;;;;;;4129129;28;20178;-63
2023/01/03 10:35:47;;;;;;;3.27;2.87;;;8.30;98.30;;;;;;4111695;28;20273;-63
2023/01/03 10:37:54;;;;;;;3.83;2.90;;;8.20;99.00;;;;;;4128598;28;20205;-63
2023/01/03 10:40:03;;;;;;;4.27;2.70;;;8.20;99.30;;;;;;4112244;28;20697;-63
2023/01/03 10:42:04;;;;;;;6.77;3.03;;;8.50;98.70;;;;;;4136218;28;20665;-63
2023/01/03 10:44:05;;;;;;;3.30;2.43;;;8.70;97.90;;;;;;4137798;28;20202;-63
2023/01/03 10:46:20;;;;;;;3.03;2.50;;;8.80;96.70;;;;;;4129996;28;20240;-63
2023/01/03 10:48:22;;;;;;;3.43;2.50;;;8.80;96.60;;;;;;4112452;28;20827;-63
2023/01/03 10:50:23;;;;;;;2.67;2.17;;;8.80;97.50;;;;;;4112555;28;20238;-63
2023/01/03 10:52:38;;;;;;;3.80;2.37;;;9.10;96.30;;;;;;4112292;28;20191;-64
2023/01/03 10:54:53;;;;;;;10.90;6.00;;;9.30;96.20;;;;;;4111647;28;20725;-63
2023/01/03 10:56:54;;;;;;;9.27;4.40;;;10.00;94.70;;;;;;4111306;28;20215;-63
2023/01/03 10:59:14;;;;;;;15.40;9.13;;;10.20;93.10;;;;;;4129494;28;20182;-63
2023/01/03 11:01:23;;;;;;;5.33;3.00;;;10.80;94.20;;;;;;4129525;28;20185;-63
2023/01/03 11:03:25;;;;;;;3.10;2.27;;;11.90;90.00;;;;;;4129354;28;20220;-63
2023/01/03 11:05:26;;;;;;;1.77;1.67;;;12.10;84.20;;;;;;4112178;28;20183;-62
2023/01/03 11:07:26;;;;;;;2.60;1.73;;;12.70;82.40;;;;;;4111322;28;20697;-63
2023/01/03 11:09:41;;;;;;;3.30;1.70;;;13.30;75.20;;;;;;4129392;28;20214;-63
2023/01/03 11:11:43;;;;;;;1.87;1.47;;;13.70;72.20;;;;;;4111907;28;21031;-62
2023/01/03 11:13:43;;;;;;;1.40;1.30;;;14.00;68.50;;;;;;4111788;28;20190;-64
2023/01/03 11:15:44;;;;;;;2.23;1.63;;;14.40;67.80;;;;;;4129132;28;20187;-63
2023/01/03 11:17:56;;;;;;;3.87;1.60;;;14.50;66.00;;;;;;4111160;28;20268;-64
2023/01/03 11:19:57;;;;;;;1.40;1.30;;;14.70;64.90;;;;;;4129261;28;20343;-64
2023/01/03 11:22:35;;;;;;;1.50;1.20;;;14.60;65.00;;;;;;4131217;28;20265;-66
2023/01/03 11:25:01;;;;;;;1.23;1.10;;;14.50;65.40;;;;;;4129614;28;20163;-66
2023/01/03 11:27:05;;;;;;;1.83;1.50;;;14.40;63.60;;;;;;4129274;28;20167;-66
2023/01/03 11:29:41;;;;;;;1.77;1.43;;;13.90;65.20;;;;;;4129847;28;20187;-66
2023/01/03 11:32:31;;;;;;;3.83;1.80;;;13.00;70.70;;;;;;4118372;28;20653;-64
2023/01/03 11:35:12;;;;;;;1.90;1.40;;;12.40;71.60;;;;;;4140157;28;20242;-64
2023/01/03 11:37:51;;;;;;;2.73;1.17;;;12.90;72.30;;;;;;4120124;28;21016;-64
2023/01/03 11:40:14;;;;;;;4.13;1.40;;;12.90;69.40;;;;;;4136335;28;20229;-63
2023/01/03 11:42:36;;;;;;;1.20;1.10;;;12.20;72.90;;;;;;4132127;28;20221;-63
2023/01/03 11:45:08;;;;;;;4.30;1.00;;;11.90;73.20;;;;;;4129930;28;20245;-64
2023/01/03 11:47:36;;;;;;;2.40;1.40;;;11.40;74.00;;;;;;4111346;28;20219;-64
2023/01/03 11:49:52;;;;;;;1.80;1.50;;;11.00;76.10;;;;;;4111751;28;20234;-64
2023/01/03 11:52:15;;;;;;;1.47;1.23;;;10.60;78.20;;;;;;4129155;28;20210;-64
2023/01/03 11:54:40;;;;;;;1.80;1.20;;;10.40;80.30;;;;;;4111862;28;20262;-64
2023/01/03 11:56:46;;;;;;;1.63;1.30;;;10.00;83.80;;;;;;4127467;28;20594;-64
2023/01/03 11:59:08;;;;;;;1.70;1.20;;;9.80;86.10;;;;;;4129317;28;20662;-64
2023/01/03 12:02:05;;;;;;;1.60;1.10;;;10.00;89.00;;;;;;4129448;28;20179;-64
2023/01/03 12:04:28;;;;;;;2.33;1.33;;;11.40;89.10;;;;;;4128775;28;20193;-64
2023/01/03 12:06:51;;;;;;;2.63;1.33;;;12.50;74.50;;;;;;4111545;28;20190;-64
2023/01/03 12:09:31;;;;;;;3.60;1.77;;;12.80;73.20;;;;;;4131512;28;20187;-64
2023/01/03 12:12:01;;;;;;;3.53;1.70;;;14.10;68.10;;;;;;4114352;28;20182;-64
2023/01/03 12:14:15;;;;;;;1.77;1.10;;;15.00;61.00;;;;;;4131711;28;20171;-64
2023/01/03 12:16:30;;;;;;;1.27;0.90;;;14.90;58.00;;;;;;4114291;28;20203;-64